sensor_id;sensor_type;location;lat;lon;timestamp;pressure;altitude;pressure_sealevel;temperature;humidity
67434;BME280;54305;47.950;6.572;2022-07-23T00:20:02;94419.59;;;17.45;93.32
67434;BME280;54305;47.950;6.572;2022-07-23T00:22:28;94416.88;;;17.19;94.51
67434;BME280;54305;47.950;6.572;2022-07-23T00:24:54;94422.94;;;17.26;92.72
67434;BME280;54305;47.950;6.572;2022-07-23T00:27:19;94429.66;;;17.35;92.95
67434;BME280;54305;47.950;6.572;2022-07-23T00:29:44;94427.00;;;17.22;93.44
67434;BME280;54305;47.950;6.572;2022-07-23T00:32:10;94429.19;;;17.12;93.84
67434;BME280;54305;47.950;6.572;2022-07-23T00:34:35;94423.75;;;17.20;92.05
67434;BME280;54305;47.950;6.572;2022-07-23T00:37:00;94425.38;;;17.21;91.34
67434;BME280;54305;47.950;6.572;2022-07-23T00:39:25;94412.84;;;17.23;90.61
67434;BME280;54305;47.950;6.572;2022-07-23T00:41:51;94408.78;;;17.27;91.46
67434;BME280;54305;47.950;6.572;2022-07-23T00:46:45;94406.69;;;16.96;94.32
67434;BME280;54305;47.950;6.572;2022-07-23T00:49:10;94401.84;;;17.00;93.27
67434;BME280;54305;47.950;6.572;2022-07-23T00:51:35;94401.59;;;16.88;94.78
67434;BME280;54305;47.950;6.572;2022-07-23T00:54:01;94407.06;;;16.87;94.62
67434;BME280;54305;47.950;6.572;2022-07-23T00:56:26;94410.22;;;16.69;94.18
67434;BME280;54305;47.950;6.572;2022-07-23T00:58:51;94422.88;;;16.53;94.86
67434;BME280;54305;47.950;6.572;2022-07-23T01:01:17;94422.66;;;16.48;95.73
67434;BME280;54305;47.950;6.572;2022-07-23T01:03:42;94415.88;;;16.60;95.39
67434;BME280;54305;47.950;6.572;2022-07-23T01:06:07;94407.38;;;16.64;94.75
67434;BME280;54305;47.950;6.572;2022-07-23T01:08:33;94415.06;;;16.66;95.20
67434;BME280;54305;47.950;6.572;2022-07-23T01:10:58;94422.31;;;16.57;94.44
67434;BME280;54305;47.950;6.572;2022-07-23T01:13:23;94416.19;;;16.50;94.67
67434;BME280;54305;47.950;6.572;2022-07-23T01:15:49;94427.16;;;16.60;93.78
67434;BME280;54305;47.950;6.572;2022-07-23T01:18:14;94416.66;;;16.60;94.22
67434;BME280;54305;47.950;6.572;2022-07-23T01:20:39;94421.72;;;16.62;95.52
67434;BME280;54305;47.950;6.572;2022-07-23T01:23:05;94418.72;;;16.65;94.53
67434;BME280;54305;47.950;6.572;2022-07-23T01:25:30;94419.31;;;16.67;95.25
67434;BME280;54305;47.950;6.572;2022-07-23T01:27:55;94417.94;;;16.71;94.60
67434;BME280;54305;47.950;6.572;2022-07-23T01:30:21;94419.97;;;16.82;93.88
67434;BME280;54305;47.950;6.572;2022-07-23T01:32:46;94425.25;;;16.82;95.30
67434;BME280;54305;47.950;6.572;2022-07-23T01:35:12;94434.53;;;16.78;94.48
67434;BME280;54305;47.950;6.572;2022-07-23T01:37:37;94429.28;;;16.78;94.68
67434;BME280;54305;47.950;6.572;2022-07-23T01:40:03;94420.41;;;16.79;94.48
67434;BME280;54305;47.950;6.572;2022-07-23T01:42:29;94406.63;;;16.77;94.74
67434;BME280;54305;47.950;6.572;2022-07-23T01:44:54;94419.59;;;16.85;94.17
67434;BME280;54305;47.950;6.572;2022-07-23T01:47:20;94425.25;;;16.82;94.17
67434;BME280;54305;47.950;6.572;2022-07-23T01:49:45;94419.38;;;16.80;94.17
67434;BME280;54305;47.950;6.572;2022-07-23T01:52:10;94415.75;;;16.81;93.72
67434;BME280;54305;47.950;6.572;2022-07-23T01:54:36;94410.47;;;16.81;94.38
67434;BME280;54305;47.950;6.572;2022-07-23T01:57:02;94413.13;;;16.87;94.57
67434;BME280;54305;47.950;6.572;2022-07-23T01:59:27;94418.78;;;16.84;94.44
67434;BME280;54305;47.950;6.572;2022-07-23T02:01:53;94421.81;;;16.88;93.75
67434;BME280;54305;47.950;6.572;2022-07-23T02:04:19;94410.69;;;16.86;93.65
67434;BME280;54305;47.950;6.572;2022-07-23T02:06:44;94417.19;;;16.90;93.97
67434;BME280;54305;47.950;6.572;2022-07-23T02:09:09;94422.69;;;16.95;94.12
67434;BME280;54305;47.950;6.572;2022-07-23T02:11:35;94430.13;;;16.85;96.03
67434;BME280;54305;47.950;6.572;2022-07-23T02:14:00;94433.38;;;16.87;94.18
67434;BME280;54305;47.950;6.572;2022-07-23T02:16:25;94430.75;;;16.93;93.40
67434;BME280;54305;47.950;6.572;2022-07-23T02:18:51;94436.84;;;16.94;93.76
67434;BME280;54305;47.950;6.572;2022-07-23T02:21:16;94434.44;;;16.99;93.24
67434;BME280;54305;47.950;6.572;2022-07-23T02:23:41;94437.03;;;16.92;94.85
67434;BME280;54305;47.950;6.572;2022-07-23T02:26:06;94436.22;;;16.92;94.15
67434;BME280;54305;47.950;6.572;2022-07-23T02:28:32;94437.00;;;16.86;93.64
67434;BME280;54305;47.950;6.572;2022-07-23T02:30:57;94432.97;;;16.90;93.40
67434;BME280;54305;47.950;6.572;2022-07-23T02:33:22;94441.06;;;16.88;93.85
67434;BME280;54305;47.950;6.572;2022-07-23T02:35:48;94449.56;;;16.84;95.16
67434;BME280;54305;47.950;6.572;2022-07-23T02:38:13;94462.44;;;16.72;97.37
67434;BME280;54305;47.950;6.572;2022-07-23T02:40:38;94458.34;;;16.63;97.10
67434;BME280;54305;47.950;6.572;2022-07-23T02:43:03;94461.25;;;16.75;95.26
67434;BME280;54305;47.950;6.572;2022-07-23T02:45:29;94456.38;;;16.72;95.38
67434;BME280;54305;47.950;6.572;2022-07-23T02:47:54;94457.22;;;16.79;94.63
67434;BME280;54305;47.950;6.572;2022-07-23T02:50:19;94460.41;;;16.74;95.71
67434;BME280;54305;47.950;6.572;2022-07-23T02:52:45;94465.66;;;16.68;95.54
67434;BME280;54305;47.950;6.572;2022-07-23T02:55:10;94462.22;;;16.74;95.81
67434;BME280;54305;47.950;6.572;2022-07-23T02:57:36;94463.88;;;16.75;95.30
67434;BME280;54305;47.950;6.572;2022-07-23T03:00:01;94461.47;;;16.80;94.53
67434;BME280;54305;47.950;6.572;2022-07-23T03:02:26;94462.06;;;16.82;93.25
67434;BME280;54305;47.950;6.572;2022-07-23T03:04:52;94459.09;;;16.91;93.22
67434;BME280;54305;47.950;6.572;2022-07-23T03:07:17;94467.41;;;16.95;93.07
67434;BME280;54305;47.950;6.572;2022-07-23T03:09:43;94462.75;;;16.97;93.51
67434;BME280;54305;47.950;6.572;2022-07-23T03:12:08;94457.47;;;16.97;92.99
67434;BME280;54305;47.950;6.572;2022-07-23T03:14:33;94468.19;;;16.89;94.61
67434;BME280;54305;47.950;6.572;2022-07-23T03:16:59;94465.56;;;16.89;95.31
67434;BME280;54305;47.950;6.572;2022-07-23T03:19:25;94466.91;;;16.78;96.08
67434;BME280;54305;47.950;6.572;2022-07-23T03:21:51;94462.25;;;16.80;95.94
67434;BME280;54305;47.950;6.572;2022-07-23T03:24:16;94457.22;;;16.79;94.99
67434;BME280;54305;47.950;6.572;2022-07-23T03:26:43;94464.09;;;16.80;94.41
67434;BME280;54305;47.950;6.572;2022-07-23T03:29:08;94471.34;;;16.78;95.33
67434;BME280;54305;47.950;6.572;2022-07-23T03:31:33;94471.13;;;16.73;96.16
67434;BME280;54305;47.950;6.572;2022-07-23T03:33:59;94468.13;;;16.76;95.29
67434;BME280;54305;47.950;6.572;2022-07-23T03:36:24;94469.34;;;16.80;94.32
67434;BME280;54305;47.950;6.572;2022-07-23T03:38:49;94464.47;;;16.77;94.42
67434;BME280;54305;47.950;6.572;2022-07-23T03:41:15;94462.06;;;16.82;93.83
67434;BME280;54305;47.950;6.572;2022-07-23T03:43:41;94461.69;;;16.85;93.27
67434;BME280;54305;47.950;6.572;2022-07-23T03:46:06;94452.00;;;16.92;93.11
67434;BME280;54305;47.950;6.572;2022-07-23T03:48:31;94461.69;;;16.85;94.31
67434;BME280;54305;47.950;6.572;2022-07-23T03:50:57;94451.97;;;16.85;94.26
67434;BME280;54305;47.950;6.572;2022-07-23T03:53:22;94470.06;;;16.61;97.47
67434;BME280;54305;47.950;6.572;2022-07-23T03:55:47;94472.47;;;16.56;97.59
67434;BME280;54305;47.950;6.572;2022-07-23T03:58:12;94471.59;;;16.49;95.90
67434;BME280;54305;47.950;6.572;2022-07-23T04:00:38;94469.06;;;16.62;95.21
67434;BME280;54305;47.950;6.572;2022-07-23T04:03:03;94468.91;;;16.70;94.77
67434;BME280;54305;47.950;6.572;2022-07-23T04:05:28;94467.50;;;16.74;95.09
67434;BME280;54305;47.950;6.572;2022-07-23T04:07:54;94468.53;;;16.79;96.17
67434;BME280;54305;47.950;6.572;2022-07-23T04:10:19;94462.81;;;16.69;97.18
67434;BME280;54305;47.950;6.572;2022-07-23T04:12:44;94461.63;;;16.72;95.63
67434;BME280;54305;47.950;6.572;2022-07-23T04:15:09;94460.41;;;16.74;95.55
67434;BME280;54305;47.950;6.572;2022-07-23T04:17:35;94454.16;;;16.75;95.33
67434;BME280;54305;47.950;6.572;2022-07-23T04:20:00;94460.03;;;16.77;95.96
67434;BME280;54305;47.950;6.572;2022-07-23T04:22:26;94469.31;;;16.73;94.74
67434;BME280;54305;47.950;6.572;2022-07-23T04:24:51;94469.78;;;16.83;93.10
67434;BME280;54305;47.950;6.572;2022-07-23T04:27:16;94462.53;;;16.92;92.38
67434;BME280;54305;47.950;6.572;2022-07-23T04:29:42;94469.41;;;16.93;92.83
67434;BME280;54305;47.950;6.572;2022-07-23T04:32:07;94470.81;;;16.89;94.35
67434;BME280;54305;47.950;6.572;2022-07-23T04:34:32;94478.63;;;16.76;95.81
67434;BME280;54305;47.950;6.572;2022-07-23T04:36:58;94482.66;;;16.72;95.20
67434;BME280;54305;47.950;6.572;2022-07-23T04:39:23;94483.72;;;16.77;93.13
67434;BME280;54305;47.950;6.572;2022-07-23T04:41:48;94482.38;;;16.94;92.13
67434;BME280;54305;47.950;6.572;2022-07-23T04:44:14;94482.41;;;17.01;91.53
67434;BME280;54305;47.950;6.572;2022-07-23T04:46:39;94482.63;;;17.06;93.25
67434;BME280;54305;47.950;6.572;2022-07-23T04:49:04;94473.53;;;17.08;93.97
67434;BME280;54305;47.950;6.572;2022-07-23T04:51:29;94478.22;;;17.13;93.50
67434;BME280;54305;47.950;6.572;2022-07-23T04:53:55;94487.72;;;17.14;92.82
67434;BME280;54305;47.950;6.572;2022-07-23T04:56:20;94498.25;;;17.14;95.12
67434;BME280;54305;47.950;6.572;2022-07-23T04:58:46;94501.69;;;17.08;94.62
67434;BME280;54305;47.950;6.572;2022-07-23T05:01:11;94497.00;;;17.10;95.08
67434;BME280;54305;47.950;6.572;2022-07-23T05:03:36;94498.25;;;17.14;94.49
67434;BME280;54305;47.950;6.572;2022-07-23T05:06:01;94492.19;;;17.20;95.10
67434;BME280;54305;47.950;6.572;2022-07-23T05:08:28;94507.91;;;17.07;96.98
67434;BME280;54305;47.950;6.572;2022-07-23T05:10:53;94498.69;;;17.24;95.19
67434;BME280;54305;47.950;6.572;2022-07-23T05:13:18;94498.53;;;17.38;93.58
67434;BME280;54305;47.950;6.572;2022-07-23T05:15:44;94507.28;;;17.39;92.71
67434;BME280;54305;47.950;6.572;2022-07-23T05:18:09;94504.84;;;17.44;91.17
67434;BME280;54305;47.950;6.572;2022-07-23T05:20:35;94509.75;;;17.47;91.30
67434;BME280;54305;47.950;6.572;2022-07-23T05:23:00;94511.97;;;17.50;91.69
67434;BME280;54305;47.950;6.572;2022-07-23T05:25:25;94524.31;;;17.49;94.90
67434;BME280;54305;47.950;6.572;2022-07-23T05:27:51;94521.47;;;17.51;93.14
67434;BME280;54305;47.950;6.572;2022-07-23T05:30:16;94521.13;;;17.67;91.28
67434;BME280;54305;47.950;6.572;2022-07-23T05:32:41;94519.94;;;17.89;89.35
67434;BME280;54305;47.950;6.572;2022-07-23T05:35:07;94516.31;;;18.03;88.71
67434;BME280;54305;47.950;6.572;2022-07-23T05:37:32;94514.50;;;18.23;87.57
67434;BME280;54305;47.950;6.572;2022-07-23T05:40:04;94520.81;;;18.35;88.89
67434;BME280;54305;47.950;6.572;2022-07-23T05:42:32;94518.38;;;18.46;90.08
67434;BME280;54305;47.950;6.572;2022-07-23T05:44:57;94513.69;;;18.55;86.24
67434;BME280;54305;47.950;6.572;2022-07-23T05:47:23;94514.88;;;18.72;86.62
67434;BME280;54305;47.950;6.572;2022-07-23T05:49:48;94520.75;;;18.87;85.37
67434;BME280;54305;47.950;6.572;2022-07-23T05:52:13;94528.22;;;19.03;83.19
67434;BME280;54305;47.950;6.572;2022-07-23T05:54:39;94528.38;;;19.14;82.46
67434;BME280;54305;47.950;6.572;2022-07-23T05:57:04;94533.28;;;19.11;85.75
67434;BME280;54305;47.950;6.572;2022-07-23T05:59:29;94525.69;;;19.34;80.95
67434;BME280;54305;47.950;6.572;2022-07-23T06:01:55;94530.69;;;19.55;80.42
67434;BME280;54305;47.950;6.572;2022-07-23T06:04:20;94526.13;;;19.75;79.32
67434;BME280;54305;47.950;6.572;2022-07-23T06:06:45;94528.88;;;19.93;78.73
67434;BME280;54305;47.950;6.572;2022-07-23T06:09:11;94533.66;;;20.09;77.17
67434;BME280;54305;47.950;6.572;2022-07-23T06:11:38;94535.59;;;20.20;80.57
67434;BME280;54305;47.950;6.572;2022-07-23T06:14:04;94539.19;;;20.32;79.84
67434;BME280;54305;47.950;6.572;2022-07-23T06:16:29;94543.72;;;20.25;80.18
67434;BME280;54305;47.950;6.572;2022-07-23T06:18:54;94535.22;;;20.41;79.06
67434;BME280;54305;47.950;6.572;2022-07-23T06:21:20;94525.59;;;20.53;81.25
67434;BME280;54305;47.950;6.572;2022-07-23T06:23:45;94525.03;;;20.69;77.82
67434;BME280;54305;47.950;6.572;2022-07-23T06:26:10;94534.31;;;20.78;78.35
67434;BME280;54305;47.950;6.572;2022-07-23T06:28:36;94540.25;;;20.98;81.45
67434;BME280;54305;47.950;6.572;2022-07-23T06:31:01;94532.63;;;21.26;77.60
67434;BME280;54305;47.950;6.572;2022-07-23T06:33:26;94536.94;;;21.39;78.93
67434;BME280;54305;47.950;6.572;2022-07-23T06:35:51;94534.88;;;21.59;76.12
67434;BME280;54305;47.950;6.572;2022-07-23T06:38:17;94532.00;;;21.78;77.84
67434;BME280;54305;47.950;6.572;2022-07-23T06:40:42;94537.44;;;21.65;80.11
67434;BME280;54305;47.950;6.572;2022-07-23T06:43:08;94540.78;;;21.25;74.00
67434;BME280;54305;47.950;6.572;2022-07-23T06:45:34;94544.41;;;21.30;76.50
67434;BME280;54305;47.950;6.572;2022-07-23T06:47:59;94553.75;;;21.33;74.58
67434;BME280;54305;47.950;6.572;2022-07-23T06:50:27;94561.19;;;21.24;74.59
67434;BME280;54305;47.950;6.572;2022-07-23T06:52:52;94561.81;;;21.20;75.28
67434;BME280;54305;47.950;6.572;2022-07-23T06:55:17;94575.72;;;20.97;75.92
67434;BME280;54305;47.950;6.572;2022-07-23T06:57:43;94575.69;;;20.48;79.24
67434;BME280;54305;47.950;6.572;2022-07-23T07:00:08;94581.19;;;20.22;79.61
67434;BME280;54305;47.950;6.572;2022-07-23T07:02:34;94589.38;;;20.14;80.94
67434;BME280;54305;47.950;6.572;2022-07-23T07:04:59;94583.09;;;20.02;78.27
67434;BME280;54305;47.950;6.572;2022-07-23T07:07:24;94595.41;;;20.21;80.08
67434;BME280;54305;47.950;6.572;2022-07-23T07:09:50;94599.78;;;20.09;79.88
67434;BME280;54305;47.950;6.572;2022-07-23T07:12:15;94595.03;;;20.17;78.89
67434;BME280;54305;47.950;6.572;2022-07-23T07:14:40;94604.78;;;20.17;78.31
67434;BME280;54305;47.950;6.572;2022-07-23T07:17:06;94612.97;;;20.16;80.39
67434;BME280;54305;47.950;6.572;2022-07-23T07:19:33;94604.72;;;20.30;78.71
67434;BME280;54305;47.950;6.572;2022-07-23T07:21:58;94599.38;;;20.37;77.79
67434;BME280;54305;47.950;6.572;2022-07-23T07:24:24;94596.13;;;19.97;81.16
67434;BME280;54305;47.950;6.572;2022-07-23T07:26:49;94598.19;;;20.33;80.07
67434;BME280;54305;47.950;6.572;2022-07-23T07:29:15;94602.91;;;20.55;80.32
67434;BME280;54305;47.950;6.572;2022-07-23T07:31:40;94601.16;;;20.74;78.66
67434;BME280;54305;47.950;6.572;2022-07-23T07:34:05;94603.38;;;21.01;81.19
67434;BME280;54305;47.950;6.572;2022-07-23T07:36:31;94600.19;;;21.35;79.38
67434;BME280;54305;47.950;6.572;2022-07-23T07:38:57;94609.00;;;21.47;77.28
67434;BME280;54305;47.950;6.572;2022-07-23T07:41:23;94610.94;;;21.58;78.24
67434;BME280;54305;47.950;6.572;2022-07-23T07:43:49;94612.25;;;21.49;76.94
67434;BME280;54305;47.950;6.572;2022-07-23T07:46:15;94614.53;;;21.64;76.69
67434;BME280;54305;47.950;6.572;2022-07-23T07:48:40;94614.78;;;21.80;78.26
67434;BME280;54305;47.950;6.572;2022-07-23T07:51:05;94609.28;;;21.21;78.88
67434;BME280;54305;47.950;6.572;2022-07-23T07:53:31;94607.72;;;21.38;77.87
67434;BME280;54305;47.950;6.572;2022-07-23T07:55:56;94612.63;;;21.53;78.89
67434;BME280;54305;47.950;6.572;2022-07-23T07:58:21;94607.44;;;21.82;80.15
67434;BME280;54305;47.950;6.572;2022-07-23T08:00:47;94610.59;;;21.91;80.18
67434;BME280;54305;47.950;6.572;2022-07-23T08:03:12;94604.56;;;22.13;80.16
67434;BME280;54305;47.950;6.572;2022-07-23T08:05:37;94604.69;;;22.18;78.37
67434;BME280;54305;47.950;6.572;2022-07-23T08:08:03;94612.13;;;21.80;78.68
67434;BME280;54305;47.950;6.572;2022-07-23T08:10:29;94608.78;;;21.49;78.74
67434;BME280;54305;47.950;6.572;2022-07-23T08:12:56;94609.47;;;21.44;79.84
67434;BME280;54305;47.950;6.572;2022-07-23T08:15:22;94609.03;;;21.65;79.10
67434;BME280;54305;47.950;6.572;2022-07-23T08:17:48;94611.56;;;21.78;78.37
67434;BME280;54305;47.950;6.572;2022-07-23T08:20:14;94602.78;;;22.25;78.61
67434;BME280;54305;47.950;6.572;2022-07-23T08:25:08;94623.63;;;21.92;75.38
67434;BME280;54305;47.950;6.572;2022-07-23T08:27:34;94616.50;;;22.04;74.33
67434;BME280;54305;47.950;6.572;2022-07-23T08:29:59;94622.16;;;22.55;73.46
67434;BME280;54305;47.950;6.572;2022-07-23T08:32:24;94620.66;;;22.48;68.78
67434;BME280;54305;47.950;6.572;2022-07-23T08:34:50;94633.88;;;22.77;74.18
67434;BME280;54305;47.950;6.572;2022-07-23T08:37:15;94625.25;;;23.16;73.24
67434;BME280;54305;47.950;6.572;2022-07-23T08:39:40;94630.69;;;23.67;68.01
67434;BME280;54305;47.950;6.572;2022-07-23T08:42:06;94624.81;;;24.16;66.32
67434;BME280;54305;47.950;6.572;2022-07-23T08:44:33;94620.63;;;23.58;67.49
67434;BME280;54305;47.950;6.572;2022-07-23T08:46:58;94625.78;;;23.87;68.34
67434;BME280;54305;47.950;6.572;2022-07-23T08:49:24;94628.13;;;23.95;66.14
67434;BME280;54305;47.950;6.572;2022-07-23T08:51:49;94626.03;;;23.74;64.18
67434;BME280;54305;47.950;6.572;2022-07-23T08:54:15;94619.31;;;23.83;64.95
67434;BME280;54305;47.950;6.572;2022-07-23T08:56:43;94622.22;;;23.82;67.48
67434;BME280;54305;47.950;6.572;2022-07-23T08:59:09;94625.25;;;23.74;66.61
67434;BME280;54305;47.950;6.572;2022-07-23T09:01:38;94619.84;;;23.57;66.40
67434;BME280;54305;47.950;6.572;2022-07-23T09:04:04;94617.91;;;22.54;68.30
67434;BME280;54305;47.950;6.572;2022-07-23T09:06:29;94613.78;;;22.81;68.57
67434;BME280;54305;47.950;6.572;2022-07-23T09:08:54;94625.34;;;22.75;68.61
67434;BME280;54305;47.950;6.572;2022-07-23T09:11:20;94627.00;;;23.45;67.80
67434;BME280;54305;47.950;6.572;2022-07-23T09:16:14;94629.88;;;23.09;64.14
67434;BME280;54305;47.950;6.572;2022-07-23T09:18:50;94627.66;;;23.06;65.37
67434;BME280;54305;47.950;6.572;2022-07-23T09:21:20;94643.63;;;23.06;64.00
67434;BME280;54305;47.950;6.572;2022-07-23T09:23:47;94634.97;;;23.57;65.31
67434;BME280;54305;47.950;6.572;2022-07-23T09:26:17;94633.53;;;24.12;62.93
67434;BME280;54305;47.950;6.572;2022-07-23T09:28:50;94631.13;;;23.87;62.34
67434;BME280;54305;47.950;6.572;2022-07-23T09:31:15;94634.75;;;23.70;62.01
67434;BME280;54305;47.950;6.572;2022-07-23T09:33:41;94634.09;;;24.42;61.75
67434;BME280;54305;47.950;6.572;2022-07-23T09:36:06;94634.53;;;24.78;62.02
67434;BME280;54305;47.950;6.572;2022-07-23T09:38:34;94635.34;;;24.79;62.27
67434;BME280;54305;47.950;6.572;2022-07-23T09:41:08;94638.00;;;24.51;61.58
67434;BME280;54305;47.950;6.572;2022-07-23T09:43:34;94635.25;;;24.90;61.90
67434;BME280;54305;47.950;6.572;2022-07-23T09:48:43;94638.31;;;24.54;62.73
67434;BME280;54305;47.950;6.572;2022-07-23T09:51:08;94638.41;;;24.87;61.76
67434;BME280;54305;47.950;6.572;2022-07-23T09:53:34;94640.66;;;24.62;62.20
67434;BME280;54305;47.950;6.572;2022-07-23T09:55:59;94644.78;;;23.79;65.46
67434;BME280;54305;47.950;6.572;2022-07-23T09:58:25;94641.91;;;23.92;64.45
67434;BME280;54305;47.950;6.572;2022-07-23T10:00:54;94647.41;;;24.14;65.31
67434;BME280;54305;47.950;6.572;2022-07-23T10:03:20;94650.03;;;24.25;60.42
67434;BME280;54305;47.950;6.572;2022-07-23T10:05:46;94651.63;;;24.26;60.81
67434;BME280;54305;47.950;6.572;2022-07-23T10:08:11;94642.56;;;24.67;61.04
67434;BME280;54305;47.950;6.572;2022-07-23T10:10:40;94646.03;;;25.28;60.79
67434;BME280;54305;47.950;6.572;2022-07-23T10:13:05;94644.53;;;25.04;57.68
67434;BME280;54305;47.950;6.572;2022-07-23T10:15:43;94647.38;;;24.81;57.72
67434;BME280;54305;47.950;6.572;2022-07-23T10:18:10;94642.94;;;24.87;60.98
67434;BME280;54305;47.950;6.572;2022-07-23T10:20:36;94658.78;;;25.10;58.44
67434;BME280;54305;47.950;6.572;2022-07-23T10:25:31;94654.03;;;25.28;58.97
67434;BME280;54305;47.950;6.572;2022-07-23T10:30:28;94657.66;;;25.55;55.73
67434;BME280;54305;47.950;6.572;2022-07-23T10:35:42;94655.19;;;25.70;53.55
67434;BME280;54305;47.950;6.572;2022-07-23T10:40:59;94664.13;;;24.54;56.75
67434;BME280;54305;47.950;6.572;2022-07-23T10:43:24;94661.25;;;24.55;58.20
67434;BME280;54305;47.950;6.572;2022-07-23T10:45:50;94665.50;;;24.56;57.29
67434;BME280;54305;47.950;6.572;2022-07-23T10:48:20;94662.56;;;24.41;57.96
67434;BME280;54305;47.950;6.572;2022-07-23T10:53:47;94669.50;;;24.98;61.89
67434;BME280;54305;47.950;6.572;2022-07-23T10:56:15;94663.63;;;25.29;55.62
67434;BME280;54305;47.950;6.572;2022-07-23T10:58:47;94663.47;;;25.52;56.33
67434;BME280;54305;47.950;6.572;2022-07-23T11:03:57;94663.69;;;26.48;53.57
67434;BME280;54305;47.950;6.572;2022-07-23T11:06:24;94667.94;;;25.85;53.64
67434;BME280;54305;47.950;6.572;2022-07-23T11:09:03;94660.63;;;26.13;54.13
67434;BME280;54305;47.950;6.572;2022-07-23T11:11:34;94670.28;;;25.98;53.47
67434;BME280;54305;47.950;6.572;2022-07-23T11:13:59;94665.72;;;26.36;51.28
67434;BME280;54305;47.950;6.572;2022-07-23T11:16:25;94660.97;;;26.43;50.43
67434;BME280;54305;47.950;6.572;2022-07-23T11:18:55;94660.84;;;26.33;52.97
67434;BME280;54305;47.950;6.572;2022-07-23T11:24:03;94669.31;;;25.49;56.08
67434;BME280;54305;47.950;6.572;2022-07-23T11:36:53;94654.56;;;26.92;48.33
67434;BME280;54305;47.950;6.572;2022-07-23T11:39:18;94669.91;;;25.73;49.42
67434;BME280;54305;47.950;6.572;2022-07-23T11:41:44;94669.69;;;26.12;50.44
67434;BME280;54305;47.950;6.572;2022-07-23T11:47:03;94678.94;;;24.89;52.58
67434;BME280;54305;47.950;6.572;2022-07-23T11:49:29;94668.75;;;24.30;56.09
67434;BME280;54305;47.950;6.572;2022-07-23T11:52:07;94672.84;;;24.49;57.57
67434;BME280;54305;47.950;6.572;2022-07-23T11:54:33;94678.38;;;24.20;56.70
67434;BME280;54305;47.950;6.572;2022-07-23T11:57:00;94666.44;;;23.94;56.35
67434;BME280;54305;47.950;6.572;2022-07-23T11:59:26;94672.09;;;23.63;58.29
67434;BME280;54305;47.950;6.572;2022-07-23T12:02:01;94676.97;;;23.43;57.55
67434;BME280;54305;47.950;6.572;2022-07-23T12:09:51;94679.84;;;23.65;57.56
67434;BME280;54305;47.950;6.572;2022-07-23T12:12:16;94673.59;;;23.71;58.09
67434;BME280;54305;47.950;6.572;2022-07-23T12:14:52;94677.94;;;24.62;55.12
67434;BME280;54305;47.950;6.572;2022-07-23T12:17:18;94680.94;;;25.10;52.11
67434;BME280;54305;47.950;6.572;2022-07-23T12:19:44;94676.25;;;25.67;52.68
67434;BME280;54305;47.950;6.572;2022-07-23T12:22:10;94671.53;;;26.76;52.14
67434;BME280;54305;47.950;6.572;2022-07-23T12:27:20;94663.72;;;27.01;47.80
67434;BME280;54305;47.950;6.572;2022-07-23T12:29:46;94661.69;;;27.40;48.16
67434;BME280;54305;47.950;6.572;2022-07-23T12:34:47;94672.19;;;26.19;49.40
67434;BME280;54305;47.950;6.572;2022-07-23T12:37:28;94664.00;;;26.73;50.03
67434;BME280;54305;47.950;6.572;2022-07-23T12:39:54;94656.88;;;27.10;46.22
67434;BME280;54305;47.950;6.572;2022-07-23T12:42:19;94673.31;;;26.49;48.22
67434;BME280;54305;47.950;6.572;2022-07-23T12:47:29;94650.50;;;27.16;44.73
67434;BME280;54305;47.950;6.572;2022-07-23T12:49:54;94660.38;;;25.93;50.17
67434;BME280;54305;47.950;6.572;2022-07-23T12:52:19;94665.16;;;26.56;49.15
67434;BME280;54305;47.950;6.572;2022-07-23T12:54:45;94658.78;;;26.88;49.43
67434;BME280;54305;47.950;6.572;2022-07-23T12:57:10;94659.00;;;27.76;45.69
67434;BME280;54305;47.950;6.572;2022-07-23T12:59:35;94663.78;;;27.74;47.80
67434;BME280;54305;47.950;6.572;2022-07-23T13:02:02;94662.19;;;28.96;45.53
67434;BME280;54305;47.950;6.572;2022-07-23T13:04:27;94661.41;;;28.96;44.66
67434;BME280;54305;47.950;6.572;2022-07-23T13:06:53;94659.63;;;27.88;47.30
67434;BME280;54305;47.950;6.572;2022-07-23T13:09:23;94671.91;;;26.90;50.03
67434;BME280;54305;47.950;6.572;2022-07-23T13:11:49;94666.69;;;26.30;48.99
67434;BME280;54305;47.950;6.572;2022-07-23T13:14:15;94659.19;;;26.49;50.97
67434;BME280;54305;47.950;6.572;2022-07-23T13:16:41;94667.69;;;26.67;49.49
67434;BME280;54305;47.950;6.572;2022-07-23T13:19:07;94676.50;;;26.03;50.03
67434;BME280;54305;47.950;6.572;2022-07-23T13:21:32;94673.00;;;24.99;53.11
67434;BME280;54305;47.950;6.572;2022-07-23T13:23:57;94675.84;;;25.09;53.46
67434;BME280;54305;47.950;6.572;2022-07-23T13:26:23;94675.13;;;25.30;53.14
67434;BME280;54305;47.950;6.572;2022-07-23T13:28:48;94671.03;;;25.93;51.17
67434;BME280;54305;47.950;6.572;2022-07-23T13:31:15;94678.72;;;26.11;51.41
67434;BME280;54305;47.950;6.572;2022-07-23T13:33:41;94676.81;;;25.90;51.44
67434;BME280;54305;47.950;6.572;2022-07-23T13:36:07;94683.28;;;25.56;51.44
67434;BME280;54305;47.950;6.572;2022-07-23T13:38:32;94673.09;;;25.04;53.15
67434;BME280;54305;47.950;6.572;2022-07-23T13:40:59;94668.34;;;25.39;52.74
67434;BME280;54305;47.950;6.572;2022-07-23T13:43:25;94660.91;;;26.60;50.42
67434;BME280;54305;47.950;6.572;2022-07-23T13:45:54;94652.81;;;26.76;48.91
67434;BME280;54305;47.950;6.572;2022-07-23T13:48:20;94652.28;;;27.32;47.14
67434;BME280;54305;47.950;6.572;2022-07-23T13:50:46;94649.75;;;27.52;49.31
67434;BME280;54305;47.950;6.572;2022-07-23T13:53:13;94646.06;;;27.27;47.63
67434;BME280;54305;47.950;6.572;2022-07-23T13:55:39;94669.09;;;26.53;48.33
67434;BME280;54305;47.950;6.572;2022-07-23T13:58:05;94653.03;;;27.01;47.62
67434;BME280;54305;47.950;6.572;2022-07-23T14:00:31;94650.03;;;26.93;49.14
67434;BME280;54305;47.950;6.572;2022-07-23T14:02:57;94657.28;;;27.24;47.50
67434;BME280;54305;47.950;6.572;2022-07-23T14:05:23;94647.41;;;28.07;45.89
67434;BME280;54305;47.950;6.572;2022-07-23T14:07:48;94648.28;;;29.29;46.28